AirNav   Everest Fuels
 
 1002 users online  

0MI9 Henry Ford Hospital Heliport
Detroit, Michigan, USA

GOING TO DETROIT?


FAA INFORMATION EFFECTIVE 18 JUNE 2020

Location

FAA Identifier: 0MI9
Lat/Long: 42-22-07.3500N 083-05-07.3600W
42-22.122500N 083-05.122667W
42.3687083,-83.0853778
(estimated)
Elevation: 633 ft. / 193 m (estimated)
Variation: 06W (1990)
Time zone: UTC -4 (UTC -5 during Standard Time)
Zip code: 48202

Heliport Operations

Heliport use: Private use, MEDICAL USE.
Activation date: 02/1992
Control tower: no
ARTCC: CLEVELAND CENTER
FSS: LANSING FLIGHT SERVICE STATION
Attendance: UNATNDD
Wind indicator: yes
Segmented circle: no
Lights: FOR PERIMETER LGTS PHONE 313-876-1115.

Heliport Communications

WX ASOS at DET (4 nm NE): PHONE 313-371-9696
WX AWOS-3 at VLL (11 nm N): 119.475 (248-288-4649)
WX ASOS at DTW (15 nm SW): 133.675 (734-955-5015)
WX AWOS-3 at ONZ (17 nm S): 119.675 (734-692-9686)

Nearby radio navigation aids

VOR radial/distance  VOR name  Freq  Var
DXOr059/15.6DETROIT VOR/DME113.4006W
SVMr099/22.7SALEM VORTAC114.3003W
CRLr044/25.4CARLETON VOR/DME115.7003W

 
NDB name  Hdg/Dist  Freq  Var  ID
GROSSE ILE018/16.341907WRYS .-. -.-- ...

Heliport Services

Runway Information

Helipad H1

Dimensions: 45 x 45 ft. / 14 x 14 m
Surface: concrete
Runway edge lights: PERI
PERIMETER LGTS.
Latitude: 42-22.122000N
Longitude: 083-05.121833W
Elevation: 633.0 ft.
Traffic pattern: leftleft

Heliport Ownership and Management from official FAA records

Ownership: Privately-owned
Owner: HENRY FORD HOSPITAL
2799 W. GRAND BLVD
DETROIT, MI 48202
Phone 313-916-2924
Manager: JEFFERY RIVIER
2799 W. GRAND BLVD
DETROIT, MI 48202
Phone (313) 916-7877

Additional Remarks

FOR CD CTC DETROIT APCH AT 800-499-8181.

Instrument Procedures

There are no published instrument procedures at 0MI9.

Some nearby airports with instrument procedures:

KDET - Coleman A Young Municipal Airport (4 nm NE)
KVLL - Oakland/Troy Airport (11 nm N)
KDTW - Detroit Metropolitan Wayne County Airport (15 nm SW)
1D2 - Canton-Plymouth-Mettetal Airport (16 nm W)
KONZ - Grosse Ile Municipal Airport (17 nm S)
KMTC - Selfridge Air National Guard Base (18 nm NE)
 
Loc | Ops | Rwys | IFR | FBO | Links
Com | Nav | Svcs | Stats | Notes
Area around 0MI9 (Henry Ford Hospital Heliport)
 
Road maps at: MapQuest Bing Google
 
Aerial photo
No photo
 
Sectional chart

 
Airport distance calculator
Flying to Henry Ford Hospital Heliport? Find the distance to fly.

From to 0MI9

Sunrise and sunset
Times for 12-Jul-2020
 Local
(UTC-4)
 Zulu
(UTC)
Morning civil twilight05:3409:34
Sunrise06:0810:08
Sunset21:0801:08
Evening civil twilight21:4201:42

Current date and time
Zulu (UTC)  12-Jul-2020 18:50:12
Local (UTC-4)  12-Jul-2020 14:50:12
 
METAR
KDET 
4nm NE 
121753Z 33010G16KT 10SM BKN060 27/15 A2980 RMK AO2 SLP087 T02720150 10272 20222 58003
CYQG 
8nm SE 
121800Z AUTO 33007KT 260V350 9SM SCT049 BKN065 27/16 A2980 RMK SLP088 DENSITY ALT 2200FT
KVLL 
11nm N 
121835Z AUTO 30008KT 10SM SCT044 SCT070 27/15 A2982 RMK AO2 T02670152
KDTW 
14nm SW 
121753Z 31009KT 10SM BKN045 BKN070 27/16 A2981 RMK AO2 SLP089 T02670156 10272 20211 58004
KONZ 
16nm S 
121835Z AUTO 31007KT 10SM SCT046 SCT050 BKN060 28/17 A2979 RMK AO2 T02780171
KMTC 
19nm NE 
121756Z 32012KT 10SM BKN049 BKN190 26/16 A2979 RMK AO2A SLP089 T02590161 10266 20210 58001 $
TAF
KDET 
4nm NE 
121734Z 1218/1318 33007KT P6SM BKN050 FM130200 02006KT P6SM SCT080 FM130900 35005KT P6SM SCT250 FM131500 35006KT P6SM BKN050
CYQG 
8nm SE 
121739Z 1218/1318 29010KT P6SM SCT220 FM122000 30010KT P6SM SCT060 TEMPO 1220/1306 BKN060 BECMG 1300/1302 04008KT FM131500 02007KT P6SM SCT040 RMK FCST BASED ON AUTO OBS. NXT FCST BY 130000Z
KDTW 
14nm SW 
121734Z 1218/1324 33007KT P6SM BKN050 FM130200 02006KT P6SM SCT080 FM130900 35005KT P6SM SCT250 FM131500 35006KT P6SM BKN050
KMTC 
19nm NE 
121700Z 1217/1323 31009KT 9999 FEW060 BKN250 QNH2976INS BECMG 1300/1301 VRB06KT 9000 -SHRA BKN025 QNH2979INS BECMG 1303/1304 VRB06KT 9999 NSW BKN015 BKN180 QNH2985INS BECMG 1314/1315 34009KT 9999 SCT030 BKN250 QNH2993INS TX26/1221Z TN15/1308Z
NOTAMs
Click for the latest NOTAMs
NOTAMs are issued by the DoD/FAA and will open in a separate window not controlled by AirNav.

 

 
 

Would you like to see your business listed on this page?

 If your business provides an interesting product or service to pilots, flight crews, aircraft, or users of the Henry Ford Hospital Heliport, you should consider listing it here.  To start the listing process, click on the button below
 
Add a business
 

Other Pages about Henry Ford Hospital Heliport

Update a link
 
Copyright © AirNav, LLC. All rights reserved. Privacy Policy  Contact